createdAt,value
2019-06-08T00:02:16.613Z,14.90
2019-06-08T00:04:46.900Z,14.87
2019-06-08T00:07:18.905Z,14.78
2019-06-08T00:09:49.210Z,14.73
2019-06-08T00:12:19.305Z,14.70
2019-06-08T00:14:49.581Z,14.65
2019-06-08T00:17:35.764Z,14.71
2019-06-08T00:19:51.625Z,14.75
2019-06-08T00:22:22.004Z,14.80
2019-06-08T00:24:52.104Z,14.80
2019-06-08T00:27:23.049Z,14.78
2019-06-08T00:29:54.545Z,14.62
2019-06-08T00:32:24.649Z,14.65
2019-06-08T00:34:55.094Z,14.68
2019-06-08T00:37:25.557Z,14.67
2019-06-08T00:39:55.834Z,14.64
2019-06-08T00:42:26.344Z,14.62
2019-06-08T00:44:56.669Z,14.68
2019-06-08T00:47:44.962Z,14.71
2019-06-08T00:49:58.909Z,14.71
2019-06-08T00:52:29.433Z,14.69
2019-06-08T00:54:59.674Z,14.41
2019-06-08T00:57:30.220Z,14.34
2019-06-08T01:00:09.682Z,14.34
2019-06-08T01:02:32.754Z,14.44
2019-06-08T01:05:03.304Z,14.46
2019-06-08T01:07:33.521Z,14.52
2019-06-08T01:10:04.365Z,14.51
2019-06-08T01:12:34.793Z,14.55
2019-06-08T01:21:10.674Z,14.64
2019-06-08T01:23:40.925Z,14.57
2019-06-08T01:26:12.845Z,14.57
2019-06-08T01:28:43.248Z,14.57
2019-06-08T01:31:13.465Z,14.58
2019-06-08T01:33:44.339Z,14.50
2019-06-08T01:36:14.550Z,14.57
2019-06-08T01:38:44.802Z,14.55
2019-06-08T01:41:15.429Z,14.56
2019-06-08T01:43:45.565Z,14.56
2019-06-08T01:46:15.717Z,14.55
2019-06-08T01:48:46.034Z,14.56
2019-06-08T01:51:16.141Z,14.59
2019-06-08T01:53:46.365Z,14.59
2019-06-08T01:56:19.080Z,14.57
2019-06-08T01:58:49.551Z,14.58
2019-06-08T02:01:19.681Z,14.54
2019-06-08T02:03:49.901Z,14.54
2019-06-08T02:06:20.063Z,14.53
2019-06-08T02:08:50.289Z,14.48
2019-06-08T02:11:20.522Z,14.39
2019-06-08T02:13:50.743Z,14.39
2019-06-08T02:16:20.962Z,14.46
2019-06-08T02:18:51.390Z,14.46
2019-06-08T02:21:26.664Z,14.46
2019-06-08T02:23:58.049Z,14.49
2019-06-08T02:26:29.150Z,14.41
2019-06-08T02:29:00.326Z,14.41
2019-06-08T02:31:31.323Z,14.40
2019-06-08T02:34:02.868Z,14.42
2019-06-08T02:36:35.000Z,14.44
2019-06-08T02:39:06.384Z,14.43
2019-06-08T02:41:37.620Z,14.45
2019-06-08T02:44:07.960Z,14.48
2019-06-08T02:46:40.472Z,14.49
2019-06-08T02:49:10.300Z,14.53
2019-06-08T02:51:41.124Z,14.56
2019-06-08T02:54:12.280Z,14.55
2019-06-08T02:56:42.808Z,14.55
2019-06-08T02:59:15.348Z,14.57
2019-06-08T03:01:46.993Z,14.58
2019-06-08T03:04:17.816Z,14.59
2019-06-08T03:06:48.395Z,14.60
2019-06-08T03:09:20.212Z,14.57
2019-06-08T03:11:51.271Z,14.59
2019-06-08T03:14:23.023Z,14.60
2019-06-08T03:16:53.471Z,14.62
2019-06-08T03:19:25.389Z,14.64
2019-06-08T03:21:55.556Z,14.64
2019-06-08T03:24:26.275Z,14.64
2019-06-08T03:26:56.541Z,14.65
2019-06-08T03:29:26.739Z,14.63
2019-06-08T03:31:57.739Z,14.66
2019-06-08T03:34:28.150Z,14.67
2019-06-08T03:36:58.563Z,14.67
2019-06-08T03:39:28.669Z,14.65
2019-06-08T03:41:58.834Z,14.62
2019-06-08T03:44:28.924Z,14.63
2019-06-08T03:46:59.237Z,14.63
2019-06-08T03:49:42.845Z,14.64
2019-06-08T03:52:01.791Z,14.64
2019-06-08T03:54:31.865Z,14.63
2019-06-08T03:57:02.012Z,14.64
2019-06-08T03:59:32.184Z,14.64
2019-06-08T04:02:02.485Z,14.65
2019-06-08T04:04:32.867Z,14.67
2019-06-08T04:07:03.356Z,14.63
2019-06-08T04:09:33.576Z,14.64
2019-06-08T04:12:04.062Z,14.66
2019-06-08T04:14:34.434Z,14.68
2019-06-08T04:17:04.700Z,14.71
2019-06-08T04:19:34.875Z,14.74
2019-06-08T04:22:05.055Z,14.74
2019-06-08T04:24:35.319Z,14.74
2019-06-08T04:27:05.459Z,14.77
2019-06-08T04:29:37.522Z,14.72
2019-06-08T04:32:07.535Z,14.73
2019-06-08T04:34:38.690Z,14.80
2019-06-08T04:37:08.990Z,14.78
2019-06-08T04:39:40.250Z,14.78
2019-06-08T04:42:10.566Z,14.79
2019-06-08T04:44:42.555Z,14.83
2019-06-08T04:47:13.483Z,14.81
2019-06-08T04:49:44.912Z,14.87
2019-06-08T04:52:16.215Z,14.86
2019-06-08T04:54:49.689Z,14.92
2019-06-08T04:57:20.352Z,14.90
2019-06-08T04:59:54.073Z,14.92
2019-06-08T05:02:24.603Z,14.89
2019-06-08T05:04:54.950Z,14.91
2019-06-08T05:07:25.595Z,14.98
2019-06-08T05:09:56.279Z,15.05
2019-06-08T05:12:26.764Z,15.13
2019-06-08T05:14:57.362Z,15.16
2019-06-08T05:17:28.921Z,15.22
2019-06-08T05:19:59.560Z,15.28
2019-06-08T05:22:30.096Z,15.34
2019-06-08T05:25:00.978Z,15.35
2019-06-08T05:27:31.862Z,15.38
2019-06-08T05:30:08.391Z,15.41
2019-06-08T05:32:35.708Z,15.39
2019-06-08T05:35:06.428Z,15.39
2019-06-08T05:37:37.035Z,15.37
2019-06-08T05:40:08.189Z,15.38
2019-06-08T05:42:40.625Z,15.39
2019-06-08T05:45:11.086Z,15.46
2019-06-08T05:47:43.889Z,15.47
2019-06-08T05:50:14.683Z,15.54
2019-06-08T05:52:45.893Z,15.55
2019-06-08T05:55:16.171Z,15.57
2019-06-08T05:57:46.543Z,15.52
2019-06-08T06:00:16.972Z,15.57
2019-06-08T06:02:47.130Z,15.64
2019-06-08T06:05:18.625Z,15.76
2019-06-08T06:07:49.159Z,15.79
2019-06-08T06:10:19.283Z,15.82
2019-06-08T06:12:49.523Z,16.01
2019-06-08T06:15:19.821Z,16.08
2019-06-08T06:17:51.412Z,16.03
2019-06-08T06:20:21.882Z,16.11
2019-06-08T06:22:52.701Z,16.14
2019-06-08T06:25:23.482Z,16.17
2019-06-08T06:27:53.703Z,16.19
2019-06-08T06:30:23.930Z,16.15
2019-06-08T06:32:54.111Z,16.14
2019-06-08T06:35:24.272Z,16.17
2019-06-08T06:37:54.684Z,16.23
2019-06-08T06:40:24.820Z,16.43
2019-06-08T06:42:55.225Z,16.34
2019-06-08T06:45:25.876Z,17.75
2019-06-08T06:47:56.166Z,17.75
2019-06-08T06:50:26.392Z,18.98
2019-06-08T06:52:55.791Z,20.18
2019-06-08T06:55:25.547Z,21.36
2019-06-08T06:57:56.022Z,21.59
2019-06-08T07:00:32.084Z,21.56
2019-06-08T07:03:01.351Z,21.96
2019-06-08T07:05:32.817Z,22.12
2019-06-08T07:08:03.415Z,22.14
2019-06-08T07:10:32.750Z,22.65
2019-06-08T07:13:02.133Z,23.16
2019-06-08T07:15:41.189Z,23.13
2019-06-08T07:18:07.641Z,22.95
2019-06-08T07:20:38.576Z,22.93
2019-06-08T07:23:08.806Z,22.95
2019-06-08T07:25:38.990Z,23.13
2019-06-08T07:28:09.246Z,23.39
2019-06-08T07:30:39.571Z,23.80
2019-06-08T07:33:09.851Z,24.05
2019-06-08T07:35:40.086Z,23.57
2019-06-08T07:38:12.646Z,23.51
2019-06-08T07:40:43.226Z,22.74
2019-06-08T07:43:12.546Z,22.43
2019-06-08T07:45:41.720Z,22.77
2019-06-08T07:48:10.981Z,23.33
2019-06-08T07:50:40.156Z,24.14
2019-06-08T07:53:10.415Z,24.52
2019-06-08T07:55:40.986Z,25.09
2019-06-08T07:58:11.428Z,24.35
2019-06-08T08:00:40.686Z,24.36
2019-06-08T08:03:11.176Z,24.70
2019-06-08T08:05:40.760Z,25.46
2019-06-08T08:08:11.086Z,25.20
2019-06-08T08:10:41.649Z,25.51
2019-06-08T08:13:12.149Z,25.37
2019-06-08T08:15:42.545Z,25.90
2019-06-08T08:18:13.286Z,26.73
2019-06-08T08:20:43.577Z,26.52
2019-06-08T08:23:14.171Z,26.52
2019-06-08T08:25:44.725Z,27.01
2019-06-08T08:28:14.055Z,27.26
2019-06-08T08:30:44.398Z,27.85
2019-06-08T08:33:14.761Z,28.32
2019-06-08T08:35:44.175Z,28.51
2019-06-08T08:38:14.635Z,29.03
2019-06-08T08:40:44.945Z,28.43
2019-06-08T08:43:17.665Z,28.16
2019-06-08T08:45:47.717Z,27.77
2019-06-08T08:48:25.539Z,28.58
2019-06-08T08:50:51.213Z,28.99
2019-06-08T08:53:22.653Z,28.58
2019-06-08T08:55:52.876Z,28.49
2019-06-08T08:58:23.444Z,29.32
2019-06-08T09:00:54.214Z,28.94
2019-06-08T09:03:30.993Z,29.00
2019-06-08T09:06:00.583Z,29.76
2019-06-08T09:08:29.736Z,29.12
2019-06-08T09:11:01.745Z,29.20
2019-06-08T09:13:29.984Z,29.97
2019-06-08T09:16:03.456Z,30.16
2019-06-08T09:18:32.480Z,30.35
2019-06-08T09:21:04.706Z,30.04
2019-06-08T09:23:37.663Z,30.14
2019-06-08T09:26:11.902Z,30.30
2019-06-08T09:28:39.411Z,30.89
2019-06-08T09:31:12.842Z,31.33
2019-06-08T09:33:41.693Z,31.67
2019-06-08T09:36:12.033Z,31.50
2019-06-08T09:38:41.508Z,31.34
2019-06-08T09:41:11.670Z,32.05
2019-06-08T09:43:42.299Z,32.48
2019-06-08T09:46:12.620Z,32.35
2019-06-08T09:48:44.691Z,31.25
2019-06-08T09:51:14.957Z,32.03
2019-06-08T09:53:47.622Z,32.48
2019-06-08T09:56:18.678Z,33.16
2019-06-08T09:58:48.781Z,32.49
2019-06-08T10:01:19.192Z,31.54
2019-06-08T10:03:48.592Z,32.66
2019-06-08T10:06:18.366Z,32.03
2019-06-08T10:08:48.150Z,32.22
2019-06-08T10:11:17.585Z,31.81
2019-06-08T10:13:47.781Z,32.26
2019-06-08T10:16:18.674Z,33.01
2019-06-08T10:18:51.399Z,32.29
2019-06-08T10:21:21.148Z,32.91
2019-06-08T10:23:50.567Z,32.60
2019-06-08T10:26:19.829Z,33.46
2019-06-08T10:28:51.275Z,32.95
2019-06-08T10:31:27.666Z,32.98
2019-06-08T10:33:50.932Z,33.17
2019-06-08T10:36:20.275Z,33.21
2019-06-08T10:38:49.717Z,33.72
2019-06-08T10:41:21.694Z,33.75
2019-06-08T10:43:49.929Z,34.48
2019-06-08T10:46:20.945Z,34.79
2019-06-08T10:48:50.452Z,33.90
2019-06-08T10:51:19.626Z,34.27
2019-06-08T10:53:52.610Z,34.25
2019-06-08T10:56:20.137Z,33.69
2019-06-08T10:58:52.126Z,35.15
2019-06-08T11:01:20.494Z,35.10
2019-06-08T11:03:50.813Z,33.95
2019-06-08T11:06:21.026Z,34.27
2019-06-08T11:08:51.337Z,34.31
2019-06-08T11:11:21.879Z,34.43
2019-06-08T11:13:52.177Z,35.30
2019-06-08T11:16:22.801Z,36.37
2019-06-08T11:18:52.954Z,36.66
2019-06-08T11:21:23.146Z,35.28
2019-06-08T11:24:10.389Z,35.78
2019-06-08T11:26:25.514Z,35.04
2019-06-08T11:28:58.381Z,34.92
2019-06-08T11:31:29.821Z,35.75
2019-06-08T11:34:00.360Z,35.57
2019-06-08T11:36:32.218Z,35.13
2019-06-08T11:39:02.604Z,35.60
2019-06-08T11:41:34.366Z,36.05
2019-06-08T11:44:05.525Z,35.38
2019-06-08T11:46:38.420Z,35.10
2019-06-08T11:49:14.358Z,36.13
2019-06-08T11:51:41.251Z,34.86
2019-06-08T11:54:27.255Z,35.30
2019-06-08T11:56:44.128Z,35.57
2019-06-08T11:59:14.617Z,34.93
2019-06-08T12:01:43.990Z,34.38
2019-06-08T12:04:14.269Z,35.35
2019-06-08T12:06:44.578Z,35.20
2019-06-08T12:09:14.207Z,35.60
2019-06-08T12:11:43.442Z,34.53
2019-06-08T12:14:14.392Z,34.74
2019-06-08T12:16:43.787Z,35.36
2019-06-08T12:19:15.740Z,35.31
2019-06-08T12:21:43.900Z,34.93
2019-06-08T12:24:14.426Z,34.32
2019-06-08T12:26:43.756Z,33.89
2019-06-08T12:29:14.966Z,33.27
2019-06-08T12:31:45.216Z,34.42
2019-06-08T12:34:15.549Z,33.29
2019-06-08T12:36:48.072Z,32.10
2019-06-08T12:39:21.044Z,32.65
2019-06-08T12:41:49.729Z,32.48
2019-06-08T12:44:21.749Z,31.93
2019-06-08T12:46:50.271Z,31.39
2019-06-08T12:49:20.518Z,32.04
2019-06-08T12:51:51.836Z,31.66
2019-06-08T12:54:21.474Z,32.47
2019-06-08T12:56:50.795Z,32.78
2019-06-08T12:59:22.586Z,31.30
2019-06-08T13:01:51.269Z,29.91
2019-06-08T13:04:23.823Z,29.42
2019-06-08T13:06:52.756Z,29.26
2019-06-08T13:09:22.078Z,29.42
2019-06-08T13:11:52.206Z,29.29
2019-06-08T13:14:21.491Z,29.50
2019-06-08T13:16:53.008Z,29.05
2019-06-08T13:19:21.650Z,28.97
2019-06-08T13:21:51.015Z,28.58
2019-06-08T13:24:20.293Z,27.75
2019-06-08T13:26:50.798Z,28.55
2019-06-08T13:29:21.998Z,28.74
2019-06-08T13:31:52.044Z,27.68
2019-06-08T13:34:24.361Z,27.95
2019-06-08T13:36:53.320Z,28.30
2019-06-08T13:39:23.250Z,28.43
2019-06-08T13:41:53.484Z,27.79
2019-06-08T13:44:27.857Z,28.25
2019-06-08T13:46:57.803Z,28.08
2019-06-08T13:49:30.540Z,27.64
2019-06-08T13:51:58.532Z,27.05
2019-06-08T13:54:31.425Z,26.79
2019-06-08T13:57:00.680Z,26.80
2019-06-08T13:59:31.100Z,26.42
2019-06-08T14:02:01.781Z,27.11
2019-06-08T14:04:32.146Z,26.81
2019-06-08T14:07:01.567Z,26.63
2019-06-08T14:09:31.434Z,27.00
2019-06-08T14:12:01.816Z,26.70
2019-06-08T14:14:33.633Z,26.53
2019-06-08T14:17:03.308Z,26.49
2019-06-08T14:19:32.396Z,26.48
2019-06-08T14:22:02.571Z,26.28
2019-06-08T14:24:34.435Z,26.11
2019-06-08T14:27:02.904Z,25.67
2019-06-08T14:29:33.088Z,25.75
2019-06-08T14:32:03.611Z,25.54
2019-06-08T14:34:32.883Z,25.71
2019-06-08T14:37:04.980Z,25.53
2019-06-08T14:39:34.080Z,25.35
2019-06-08T14:42:03.493Z,25.61
2019-06-08T14:44:33.962Z,25.42
2019-06-08T14:47:14.097Z,24.89
2019-06-08T14:49:48.688Z,24.86
2019-06-08T14:52:20.276Z,25.00
2019-06-08T14:54:51.169Z,24.70
2019-06-08T14:57:21.302Z,24.73
2019-06-08T14:59:50.459Z,24.56
2019-06-08T15:02:21.096Z,24.47
2019-06-08T15:04:50.485Z,24.22
2019-06-08T15:07:23.314Z,24.05
2019-06-08T15:09:52.748Z,24.03
2019-06-08T15:12:23.522Z,24.13
2019-06-08T15:14:55.189Z,24.07
2019-06-08T15:17:26.495Z,24.15
2019-06-08T15:19:58.564Z,24.01
2019-06-08T15:22:30.561Z,24.10
2019-06-08T15:25:01.069Z,24.10
2019-06-08T15:27:34.073Z,24.01
2019-06-08T15:30:08.398Z,24.04
2019-06-08T15:32:38.846Z,23.96
2019-06-08T15:35:09.353Z,23.98
2019-06-08T15:37:40.914Z,23.63
2019-06-08T15:40:12.482Z,23.62
2019-06-08T15:42:42.867Z,23.62
2019-06-08T15:45:13.138Z,23.55
2019-06-08T15:47:43.353Z,23.54
2019-06-08T15:50:13.641Z,23.49
2019-06-08T15:52:43.891Z,23.25
2019-06-08T15:55:15.095Z,23.45
2019-06-08T15:57:48.076Z,23.46
2019-06-08T16:00:19.956Z,23.25
2019-06-08T16:02:50.514Z,23.24
2019-06-08T16:05:20.955Z,23.23
2019-06-08T16:07:51.737Z,23.24
2019-06-08T16:10:23.999Z,23.26
2019-06-08T16:12:54.353Z,23.21
2019-06-08T16:15:24.929Z,23.17
2019-06-08T16:17:55.302Z,23.19
2019-06-08T16:20:25.633Z,23.16
2019-06-08T16:22:55.907Z,23.20
2019-06-08T16:25:27.532Z,23.13
2019-06-08T16:28:00.063Z,23.04
2019-06-08T16:30:31.022Z,22.95
2019-06-08T16:33:01.572Z,22.94
2019-06-08T16:35:31.883Z,22.94
2019-06-08T16:38:02.219Z,22.91
2019-06-08T16:40:34.284Z,22.85
2019-06-08T16:43:04.993Z,22.89
2019-06-08T16:45:35.547Z,22.83
2019-06-08T16:48:06.096Z,22.83
2019-06-08T16:50:36.569Z,22.85
2019-06-08T16:53:07.055Z,22.81
2019-06-08T16:55:38.474Z,22.66
2019-06-08T16:58:08.744Z,22.69
2019-06-08T17:00:42.099Z,22.62
2019-06-08T17:03:12.668Z,22.67
2019-06-08T17:05:43.076Z,22.64
2019-06-08T17:08:13.276Z,22.55
2019-06-08T17:10:43.469Z,22.57
2019-06-08T17:13:13.705Z,22.46
2019-06-08T17:15:44.027Z,22.46
2019-06-08T17:18:14.365Z,22.43
2019-06-08T17:20:46.535Z,22.33
2019-06-08T17:23:16.848Z,22.22
2019-06-08T17:25:47.362Z,22.17
2019-06-08T17:28:17.757Z,22.03
2019-06-08T17:30:48.258Z,22.08
2019-06-08T17:33:18.415Z,22.02
2019-06-08T17:35:48.956Z,21.93
2019-06-08T17:38:21.083Z,21.90
2019-06-08T17:40:51.621Z,21.93
2019-06-08T17:43:25.323Z,21.85
2019-06-08T17:45:56.060Z,21.84
2019-06-08T17:48:26.733Z,21.76
2019-06-08T17:50:57.464Z,21.74
2019-06-08T17:53:28.166Z,21.68
2019-06-08T17:55:58.879Z,21.63
2019-06-08T17:58:33.041Z,21.53
2019-06-08T18:01:04.188Z,21.53
2019-06-08T18:03:41.053Z,21.41
2019-06-08T18:06:11.494Z,21.42
2019-06-08T18:08:44.032Z,21.31
2019-06-08T18:11:17.368Z,21.22
2019-06-08T18:13:49.365Z,21.11
2019-06-08T18:16:29.377Z,20.86
2019-06-08T18:18:59.856Z,20.71
2019-06-08T18:21:32.650Z,20.48
2019-06-08T18:24:04.966Z,20.29
2019-06-08T18:26:38.380Z,20.07
2019-06-08T18:29:08.297Z,19.89
2019-06-08T18:31:40.233Z,19.73
2019-06-08T18:34:10.899Z,19.59
2019-06-08T18:36:43.293Z,19.60
2019-06-08T18:39:14.373Z,19.65
2019-06-08T18:41:48.242Z,19.63
2019-06-08T18:44:19.143Z,19.67
2019-06-08T18:46:50.281Z,19.67
2019-06-08T18:49:20.959Z,19.70
2019-06-08T18:51:53.693Z,19.60
2019-06-08T18:54:27.607Z,19.46
2019-06-08T18:56:57.369Z,19.43
2019-06-08T18:59:28.916Z,19.17
2019-06-08T19:02:00.640Z,19.07
2019-06-08T19:04:31.708Z,18.88
2019-06-08T19:07:03.606Z,18.63
2019-06-08T19:09:38.790Z,18.61
2019-06-08T19:12:07.930Z,18.42
2019-06-08T19:14:39.268Z,18.41
2019-06-08T19:17:11.495Z,18.40
2019-06-08T19:19:47.601Z,18.30
2019-06-08T19:22:18.782Z,18.21
2019-06-08T19:24:50.649Z,18.12
2019-06-08T19:27:19.307Z,17.97
2019-06-08T19:29:51.656Z,17.80
2019-06-08T19:32:23.283Z,17.64
2019-06-08T19:34:54.962Z,17.44
2019-06-08T19:37:28.729Z,17.35
2019-06-08T19:39:59.043Z,17.22
2019-06-08T19:42:39.518Z,17.15
2019-06-08T19:45:05.725Z,17.06
2019-06-08T19:47:36.266Z,17.00
2019-06-08T19:50:07.893Z,16.90
2019-06-08T19:52:43.457Z,16.70
2019-06-08T19:55:11.792Z,16.40
2019-06-08T19:57:43.362Z,16.24
2019-06-08T20:00:18.063Z,16.20
2019-06-08T20:02:53.382Z,16.20
2019-06-08T20:05:23.413Z,16.31
2019-06-08T20:07:54.279Z,16.15
2019-06-08T20:10:28.029Z,15.71
2019-06-08T20:13:01.260Z,15.38
2019-06-08T20:15:33.176Z,15.44
2019-06-08T20:18:05.779Z,15.47
2019-06-08T20:20:38.194Z,15.43
2019-06-08T20:23:11.897Z,15.44
2019-06-08T20:25:45.224Z,14.92
2019-06-08T20:28:17.311Z,14.80
2019-06-08T20:30:50.565Z,14.84
2019-06-08T20:33:22.758Z,14.79
2019-06-08T20:35:54.612Z,14.44
2019-06-08T20:38:37.761Z,14.58
2019-06-08T20:41:00.794Z,14.45
2019-06-08T20:43:32.477Z,14.36
2019-06-08T20:46:03.575Z,14.05
2019-06-08T20:48:34.147Z,14.09
2019-06-08T20:51:07.890Z,14.18
2019-06-08T20:53:38.740Z,14.09
2019-06-08T20:56:10.548Z,13.97
2019-06-08T20:58:43.189Z,13.81
2019-06-08T21:01:15.104Z,13.66
2019-06-08T21:03:48.558Z,13.49
2019-06-08T21:06:21.347Z,13.30
2019-06-08T21:08:54.737Z,13.25
2019-06-08T21:11:30.041Z,13.32
2019-06-08T21:14:01.689Z,13.28
2019-06-08T21:16:33.630Z,13.38
2019-06-08T21:19:07.268Z,13.35
2019-06-08T21:21:38.717Z,13.27
2019-06-08T21:24:09.825Z,13.21
2019-06-08T21:26:40.683Z,13.11
2019-06-08T21:29:11.143Z,13.01
2019-06-08T21:31:42.132Z,13.01
2019-06-08T21:34:12.387Z,13.00
2019-06-08T21:36:42.954Z,12.80
2019-06-08T21:39:13.814Z,12.77
2019-06-08T21:41:44.057Z,12.73
2019-06-08T21:44:22.706Z,12.75
2019-06-08T21:46:51.404Z,12.69
2019-06-08T21:49:21.169Z,12.59
2019-06-08T21:51:52.999Z,12.52
2019-06-08T21:54:27.042Z,12.42
2019-06-08T21:56:59.329Z,12.37
2019-06-08T21:59:28.688Z,12.30
2019-06-08T22:02:02.310Z,12.33
2019-06-08T22:04:31.270Z,12.06
2019-06-08T22:07:03.252Z,11.96
2019-06-08T22:09:34.595Z,11.96
2019-06-08T22:12:06.995Z,12.00
2019-06-08T22:14:37.817Z,12.00
2019-06-08T22:17:10.577Z,11.75
2019-06-08T22:19:44.825Z,11.64
2019-06-08T22:22:15.125Z,11.66
2019-06-08T22:24:47.355Z,11.68
2019-06-08T22:27:17.686Z,11.69
2019-06-08T22:29:48.441Z,11.51
2019-06-08T22:32:18.866Z,11.37
2019-06-08T22:34:49.061Z,11.37
2019-06-08T22:37:20.024Z,11.38
2019-06-08T22:39:51.125Z,11.37
2019-06-08T22:42:22.468Z,11.00
2019-06-08T22:44:54.216Z,11.01
2019-06-08T22:47:27.949Z,11.10
2019-06-08T22:50:00.845Z,11.08
2019-06-08T22:52:32.039Z,10.73
2019-06-08T22:55:06.939Z,10.70
2019-06-08T22:57:37.824Z,10.74
2019-06-08T23:00:16.604Z,10.74
2019-06-08T23:02:42.693Z,10.81
2019-06-08T23:05:13.729Z,10.73
2019-06-08T23:07:44.105Z,10.71
2019-06-08T23:10:14.568Z,10.71
2019-06-08T23:12:47.202Z,10.68
2019-06-08T23:15:18.367Z,10.67
2019-06-08T23:17:48.651Z,10.59
2019-06-08T23:20:18.904Z,10.58
2019-06-08T23:22:49.056Z,10.53
2019-06-08T23:25:19.433Z,10.38
2019-06-08T23:27:49.622Z,10.23
2019-06-08T23:30:20.018Z,10.23
2019-06-08T23:32:50.204Z,10.24
2019-06-08T23:35:20.365Z,10.25
2019-06-08T23:37:50.648Z,10.27
2019-06-08T23:40:24.308Z,10.24
2019-06-08T23:42:54.661Z,10.22
2019-06-08T23:45:27.167Z,10.12
2019-06-08T23:47:59.885Z,9.96
2019-06-08T23:50:29.205Z,9.75
2019-06-08T23:53:00.617Z,9.73
2019-06-08T23:55:31.057Z,9.69
2019-06-08T23:58:02.923Z,9.69
